Time;durP1;ratioP1;P1;durP2;ratioP2;P2;SDS_P1;SDS_P2;PMS_P1;PMS_P2;Temp;Humidity;BMP_temperature;BMP_pressure;BME280_temperature;BME280_humidity;BME280_pressure;Samples;Min_cycle;Max_cycle;Signal;HPM_P1;HPM_P2
2022/07/07 00:04:33;;;;;;;;;;;;;;;22.77;38.66;96199.13;10508476;28;1879;-54
2022/07/07 00:09:33;;;;;;;;;;;;;;;22.73;38.49;96198.09;10512876;28;1957;-58
2022/07/07 00:14:33;;;;;;;;;;;;;;;22.73;38.38;96192.81;10522314;28;1965;-55
2022/07/07 00:19:34;;;;;;;;;;;;;;;22.70;38.29;96194.16;10509491;28;1963;-61
2022/07/07 00:24:35;;;;;;;;;;;;;;;22.67;38.17;96183.34;10518687;28;1851;-56
2022/07/07 00:29:35;;;;;;;;;;;;;;;22.65;37.75;96183.59;10506996;28;1847;-57
2022/07/07 00:34:36;;;;;;;;;;;;;;;22.66;38.25;96187.84;10498160;28;1824;-57
2022/07/07 00:39:38;;;;;;;;;;;;;;;22.64;37.79;96201.34;10496929;28;2183;-57
2022/07/07 00:44:38;;;;;;;;;;;;;;;22.62;38.05;96190.25;10508224;28;2062;-59
2022/07/07 00:49:40;;;;;;;;;;;;;;;22.61;38.09;96187.88;10510439;28;1985;-58
2022/07/07 00:54:49;;;;;;;;;;;;;;;22.60;37.83;96192.38;10509280;28;2060;-60
2022/07/07 00:59:50;;;;;;;;;;;;;;;22.59;37.69;96180.22;10512153;28;2005;-59
2022/07/07 01:04:50;;;;;;;;;;;;;;;22.55;37.87;96176.53;10504356;28;1991;-57
2022/07/07 01:09:50;;;;;;;;;;;;;;;22.54;37.92;96182.88;10510228;28;1914;-60
2022/07/07 01:14:51;;;;;;;;;;;;;;;22.53;37.78;96178.66;10501429;28;1859;-57
2022/07/07 01:19:51;;;;;;;;;;;;;;;22.50;37.26;96167.84;10512586;28;1971;-59
2022/07/07 01:24:52;;;;;;;;;;;;;;;22.48;37.49;96180.56;10508955;28;2132;-58
2022/07/07 01:30:01;;;;;;;;;;;;;;;22.45;37.18;96181.88;10508236;28;1929;-55
2022/07/07 01:35:11;;;;;;;;;;;;;;;22.47;37.73;96184.25;10507520;28;1896;-56
2022/07/07 01:40:16;;;;;;;;;;;;;;;22.44;37.37;96180.28;10506450;28;1910;-56
2022/07/07 01:45:17;;;;;;;;;;;;;;;22.38;37.40;96173.47;10510268;28;2219;-58
2022/07/07 01:50:18;;;;;;;;;;;;;;;22.38;37.65;96165.53;10504934;28;1894;-53
2022/07/07 01:55:19;;;;;;;;;;;;;;;22.36;37.76;96172.19;10509275;28;1903;-56
2022/07/07 02:00:19;;;;;;;;;;;;;;;22.35;37.44;96168.75;10503985;28;2001;-59
2022/07/07 02:05:20;;;;;;;;;;;;;;;22.32;37.85;96166.63;10505454;28;1884;-56
2022/07/07 02:15:41;;;;;;;;;;;;;;;22.29;37.40;96177.75;10514305;28;1772;-58
2022/07/07 02:20:41;;;;;;;;;;;;;;;22.29;37.33;96169.84;10509620;28;1924;-60
2022/07/07 02:25:42;;;;;;;;;;;;;;;22.26;37.56;96167.75;10507509;28;1796;-61
2022/07/07 02:30:43;;;;;;;;;;;;;;;22.21;37.54;96159.88;10503220;28;1944;-59
2022/07/07 02:35:44;;;;;;;;;;;;;;;22.19;37.50;96169.91;10500525;28;1847;-60
2022/07/07 02:40:45;;;;;;;;;;;;;;;22.17;37.49;96164.13;10512206;28;1973;-61
2022/07/07 02:45:46;;;;;;;;;;;;;;;22.18;37.47;96164.88;10506717;28;2024;-58
2022/07/07 02:50:46;;;;;;;;;;;;;;;22.11;37.71;96153.84;10508263;28;1835;-61
2022/07/07 02:55:47;;;;;;;;;;;;;;;22.13;37.62;96159.66;10505112;28;1875;-62
2022/07/07 03:00:47;;;;;;;;;;;;;;;22.06;37.71;96162.59;10514365;28;1965;-60
2022/07/07 03:05:48;;;;;;;;;;;;;;;22.04;37.62;96156.00;10508026;28;1562;-58
2022/07/07 03:10:48;;;;;;;;;;;;;;;22.04;37.57;96153.34;10512163;28;2253;-57
2022/07/07 03:15:48;;;;;;;;;;;;;;;21.99;37.80;96145.47;10518468;28;2049;-58
2022/07/07 03:20:48;;;;;;;;;;;;;;;21.99;37.70;96146.25;10510468;28;2160;-57
2022/07/07 03:25:49;;;;;;;;;;;;;;;21.99;37.78;96143.59;10502830;28;1819;-60
2022/07/07 03:30:50;;;;;;;;;;;;;;;21.97;37.87;96131.75;10501220;28;2049;-57
2022/07/07 03:35:50;;;;;;;;;;;;;;;21.96;37.94;96136.25;10507657;28;2136;-57
2022/07/07 03:40:51;;;;;;;;;;;;;;;21.95;37.66;96136.53;10502387;28;1969;-57
2022/07/07 03:45:53;;;;;;;;;;;;;;;21.93;37.59;96126.22;10506498;28;1906;-59
2022/07/07 03:50:53;;;;;;;;;;;;;;;21.91;37.81;96132.84;10505401;28;1888;-55
2022/07/07 03:55:54;;;;;;;;;;;;;;;21.91;37.92;96130.22;10514622;28;2137;-61
2022/07/07 04:00:54;;;;;;;;;;;;;;;21.88;37.56;96139.47;10504556;28;2286;-55
2022/07/07 04:05:54;;;;;;;;;;;;;;;21.88;37.71;96141.31;10509054;28;2061;-57
2022/07/07 04:10:55;;;;;;;;;;;;;;;21.91;37.78;96151.34;10511969;28;2073;-62
2022/07/07 04:15:58;;;;;;;;;;;;;;;21.91;37.99;96146.06;10509948;28;1843;-57
2022/07/07 04:20:59;;;;;;;;;;;;;;;21.90;37.71;96142.63;10523258;28;2039;-61
2022/07/07 04:25:59;;;;;;;;;;;;;;;21.86;37.99;96144.22;10504065;28;1909;-58
2022/07/07 04:31:00;;;;;;;;;;;;;;;21.59;37.60;96141.16;10511416;28;2157;-58
2022/07/07 04:36:01;;;;;;;;;;;;;;;21.32;37.71;96135.44;10507738;28;1851;-53
2022/07/07 04:41:01;;;;;;;;;;;;;;;21.21;37.41;96126.75;10511670;28;1913;-55
2022/07/07 04:46:01;;;;;;;;;;;;;;;21.03;37.73;96122.88;10506938;28;1779;-55
2022/07/07 04:51:02;;;;;;;;;;;;;;;20.88;37.85;96127.34;10515673;28;1851;-55
2022/07/07 04:56:02;;;;;;;;;;;;;;;20.79;37.80;96127.06;10506186;28;1796;-58
2022/07/07 05:01:02;;;;;;;;;;;;;;;20.72;37.78;96121.31;10508635;28;2223;-58
2022/07/07 05:06:03;;;;;;;;;;;;;;;20.74;37.87;96129.72;10513124;28;1888;-54
2022/07/07 05:11:03;;;;;;;;;;;;;;;20.74;37.71;96121.03;10512005;28;2234;-55
2022/07/07 05:16:05;;;;;;;;;;;;;;;20.66;37.53;96129.47;10506852;28;1973;-58
2022/07/07 05:21:06;;;;;;;;;;;;;;;20.63;37.78;96143.94;10506222;28;1914;-57
2022/07/07 05:26:06;;;;;;;;;;;;;;;20.60;37.96;96148.97;10513298;28;1998;-56
2022/07/07 05:31:10;;;;;;;;;;;;;;;20.58;37.76;96151.06;10508189;28;1848;-57
2022/07/07 05:36:10;;;;;;;;;;;;;;;20.59;37.87;96144.75;10512368;28;1867;-58
2022/07/07 05:41:11;;;;;;;;;;;;;;;20.54;37.80;96153.47;10504549;28;2124;-57
2022/07/07 05:46:11;;;;;;;;;;;;;;;20.48;38.00;96148.44;10508827;28;1819;-57
2022/07/07 05:51:12;;;;;;;;;;;;;;;20.48;38.07;96149.25;10502748;28;1899;-61
2022/07/07 05:56:13;;;;;;;;;;;;;;;20.47;37.59;96145.00;10501213;28;2014;-55
2022/07/07 06:01:13;;;;;;;;;;;;;;;20.33;38.24;96141.31;10504193;28;1906;-57
2022/07/07 06:06:13;;;;;;;;;;;;;;;20.29;38.17;96137.63;10499212;28;1799;-57
2022/07/07 06:11:14;;;;;;;;;;;;;;;20.32;38.28;96131.84;10499575;28;1839;-60
2022/07/07 06:16:15;;;;;;;;;;;;;;;20.32;38.28;96134.47;10506007;28;1811;-57
2022/07/07 06:21:15;;;;;;;;;;;;;;;20.18;38.52;96136.00;10515943;28;1898;-59
2022/07/07 06:26:16;;;;;;;;;;;;;;;20.14;38.61;96138.38;10504485;28;1870;-57
2022/07/07 06:31:16;;;;;;;;;;;;;;;20.13;38.67;96138.66;10496045;28;1867;-56
2022/07/07 06:36:16;;;;;;;;;;;;;;;20.09;39.09;96150.75;10501310;28;1941;-58
2022/07/07 06:41:17;;;;;;;;;;;;;;;20.18;38.80;96154.44;10505786;28;1909;-55
2022/07/07 06:46:17;;;;;;;;;;;;;;;20.19;39.07;96148.13;10509637;28;1843;-58
2022/07/07 06:51:18;;;;;;;;;;;;;;;20.25;39.12;96149.75;10502235;28;1832;-56
2022/07/07 06:56:19;;;;;;;;;;;;;;;20.23;39.06;96143.94;10498945;28;2166;-56
2022/07/07 07:01:20;;;;;;;;;;;;;;;20.23;39.31;96144.75;10505519;28;1906;-57
2022/07/07 07:06:21;;;;;;;;;;;;;;;20.26;39.38;96138.16;10504701;28;1846;-55
2022/07/07 07:11:22;;;;;;;;;;;;;;;20.28;39.17;96136.84;10505828;28;1833;-58
2022/07/07 07:16:23;;;;;;;;;;;;;;;20.27;38.99;96135.28;10502334;28;1891;-56
2022/07/07 07:21:23;;;;;;;;;;;;;;;20.32;39.12;96146.84;10509733;28;1960;-56
2022/07/07 07:26:24;;;;;;;;;;;;;;;20.24;39.13;96145.50;10513301;28;1772;-58
2022/07/07 07:31:25;;;;;;;;;;;;;;;20.30;39.32;96154.22;10506409;28;1787;-60
2022/07/07 07:36:25;;;;;;;;;;;;;;;20.25;39.47;96142.66;10511166;28;1816;-58
2022/07/07 07:41:26;;;;;;;;;;;;;;;20.32;39.63;96147.63;10510145;28;1914;-56
2022/07/07 07:46:26;;;;;;;;;;;;;;;20.34;39.65;96142.13;10510281;28;1843;-55
2022/07/07 07:51:26;;;;;;;;;;;;;;;20.30;39.52;96148.97;10511966;28;1799;-56
2022/07/07 07:56:27;;;;;;;;;;;;;;;20.35;39.67;96143.69;10503390;28;1834;-56
2022/07/07 08:01:27;;;;;;;;;;;;;;;20.38;39.40;96141.31;10510539;28;1946;-60
2022/07/07 08:06:27;;;;;;;;;;;;;;;20.38;39.36;96146.56;10509886;28;1847;-56
2022/07/07 08:11:28;;;;;;;;;;;;;;;20.36;39.43;96146.06;10509541;28;1820;-57
2022/07/07 08:16:28;;;;;;;;;;;;;;;20.36;39.21;96143.41;10508691;28;1807;-59
2022/07/07 08:21:28;;;;;;;;;;;;;;;20.27;39.43;96143.16;10506831;28;1985;-58
2022/07/07 08:26:28;;;;;;;;;;;;;;;20.29;39.40;96137.63;10504454;28;1815;-59
2022/07/07 08:31:30;;;;;;;;;;;;;;;20.34;39.32;96137.63;10506171;28;1931;-58
2022/07/07 08:36:31;;;;;;;;;;;;;;;20.43;39.14;96138.69;10500767;28;1838;-57
2022/07/07 08:41:31;;;;;;;;;;;;;;;20.47;38.85;96137.13;10508870;28;1943;-57
2022/07/07 08:46:32;;;;;;;;;;;;;;;20.48;38.89;96143.97;10505830;28;1788;-60
2022/07/07 08:51:32;;;;;;;;;;;;;;;20.58;39.15;96136.06;10505114;28;1764;-60
2022/07/07 08:56:33;;;;;;;;;;;;;;;20.62;38.57;96138.97;10509020;28;1866;-60
2022/07/07 09:01:34;;;;;;;;;;;;;;;20.63;38.73;96146.59;10474861;28;2001;-60
2022/07/07 09:06:34;;;;;;;;;;;;;;;20.65;38.51;96146.34;10502566;28;1795;-54
2022/07/07 09:11:35;;;;;;;;;;;;;;;20.66;38.79;96155.81;10513908;28;1668;-55
2022/07/07 09:16:36;;;;;;;;;;;;;;;20.66;38.58;96153.19;10505862;28;1877;-59
2022/07/07 09:21:37;;;;;;;;;;;;;;;20.69;38.92;96157.94;10501514;28;1969;-55
2022/07/07 09:26:38;;;;;;;;;;;;;;;20.70;38.51;96157.66;10509227;28;1828;-55
2022/07/07 09:31:54;;;;;;;;;;;;;;;20.64;39.25;96166.63;10506706;28;1812;-54
2022/07/07 09:42:18;;;;;;;;;;;;;;;20.58;41.19;96170.31;10504423;28;1969;-57
2022/07/07 09:47:19;;;;;;;;;;;;;;;20.57;41.29;96170.56;10508183;28;2109;-55
2022/07/07 09:52:21;;;;;;;;;;;;;;;20.59;41.27;96171.06;10511177;28;1895;-58
2022/07/07 09:57:21;;;;;;;;;;;;;;;20.64;41.21;96169.25;10513997;28;1874;-54
2022/07/07 10:02:23;;;;;;;;;;;;;;;20.61;40.94;96167.13;10512300;28;2012;-55
2022/07/07 10:07:27;;;;;;;;;;;;;;;20.61;41.27;96171.63;10507268;28;1823;-60
2022/07/07 10:12:28;;;;;;;;;;;;;;;20.69;41.64;96174.50;10500026;28;1858;-57
2022/07/07 10:17:29;;;;;;;;;;;;;;;20.91;41.84;96176.88;10507252;28;1914;-60
2022/07/07 10:22:35;;;;;;;;;;;;;;;21.11;41.59;96171.59;10512624;28;1792;-54
2022/07/07 10:27:44;;;;;;;;;;;;;;;21.26;41.30;96170.78;10503747;28;1831;-60
2022/07/07 10:32:51;;;;;;;;;;;;;;;21.38;41.36;96187.91;10494007;28;1799;-57
2022/07/07 10:37:53;;;;;;;;;;;;;;;21.48;41.00;96182.59;10510787;28;1969;-56
2022/07/07 10:43:05;;;;;;;;;;;;;;;21.56;41.22;96168.06;10508971;28;1975;-55
2022/07/07 10:48:06;;;;;;;;;;;;;;;21.64;40.97;96178.84;10508013;28;1826;-56
2022/07/07 10:53:06;;;;;;;;;;;;;;;21.71;41.07;96154.81;10508904;28;1856;-54
2022/07/07 10:58:07;;;;;;;;;;;;;;;21.78;41.08;96152.69;10497800;28;1913;-60
2022/07/07 11:03:10;;;;;;;;;;;;;;;21.84;41.11;96151.63;10514354;28;1826;-60
2022/07/07 11:08:11;;;;;;;;;;;;;;;21.89;41.05;96156.88;10518409;28;1768;-55
2022/07/07 11:13:21;;;;;;;;;;;;;;;21.94;41.18;96154.22;10512149;28;2211;-57
2022/07/07 11:18:22;;;;;;;;;;;;;;;21.99;40.87;96158.69;10508456;28;1905;-56
2022/07/07 11:23:22;;;;;;;;;;;;;;;22.04;41.18;96156.00;10524067;28;1862;-59
2022/07/07 11:28:23;;;;;;;;;;;;;;;22.09;40.84;96155.97;10515531;28;1881;-56
2022/07/07 11:33:23;;;;;;;;;;;;;;;22.12;40.89;96148.28;10517939;28;1784;-57
2022/07/07 11:38:26;;;;;;;;;;;;;;;22.15;40.86;96150.41;10510777;28;2004;-56
2022/07/07 11:43:26;;;;;;;;;;;;;;;22.20;41.07;96145.06;10517384;28;1831;-60
2022/07/07 11:48:37;;;;;;;;;;;;;;;22.22;41.14;96150.88;10518510;28;1845;-56
2022/07/07 11:53:37;;;;;;;;;;;;;;;22.25;41.25;96155.63;10513154;28;1790;-53
2022/07/07 11:58:38;;;;;;;;;;;;;;;22.29;40.96;96161.13;10496533;28;1902;-55
2022/07/07 12:03:38;;;;;;;;;;;;;;;22.31;40.96;96159.00;10499118;28;1995;-55
2022/07/07 12:08:39;;;;;;;;;;;;;;;22.33;41.24;96155.03;10486048;28;1987;-59
2022/07/07 12:13:40;;;;;;;;;;;;;;;22.36;41.20;96151.81;10506836;28;1810;-59
2022/07/07 12:18:41;;;;;;;;;;;;;;;22.38;40.99;96151.56;10501200;28;1969;-61
2022/07/07 12:23:42;;;;;;;;;;;;;;;22.38;41.40;96144.41;10517277;28;1867;-58
2022/07/07 12:28:43;;;;;;;;;;;;;;;22.42;41.20;96149.94;10519601;28;1832;-57
2022/07/07 12:33:44;;;;;;;;;;;;;;;22.43;41.11;96149.66;10518099;28;1935;-54
2022/07/07 12:38:46;;;;;;;;;;;;;;;22.47;40.97;96144.63;10505653;28;2028;-58
2022/07/07 12:43:46;;;;;;;;;;;;;;;22.48;41.03;96144.34;10515551;28;1917;-54
2022/07/07 12:48:50;;;;;;;;;;;;;;;22.53;40.89;96144.31;10509031;28;2012;-55
2022/07/07 12:53:51;;;;;;;;;;;;;;;22.62;40.75;96145.34;10514240;28;1889;-59
2022/07/07 12:58:53;;;;;;;;;;;;;;;22.65;41.11;96144.75;10515426;28;1914;-56
2022/07/07 13:03:54;;;;;;;;;;;;;;;22.70;40.74;96136.00;10512360;28;1837;-58
2022/07/07 13:08:54;;;;;;;;;;;;;;;22.72;40.87;96136.53;10514284;28;1972;-56
2022/07/07 13:13:54;;;;;;;;;;;;;;;22.73;40.97;96139.97;10507762;28;1911;-53
2022/07/07 13:18:55;;;;;;;;;;;;;;;22.74;40.81;96144.97;10513099;28;1905;-60
2022/07/07 13:23:55;;;;;;;;;;;;;;;22.75;40.96;96148.41;10512771;28;2244;-60
2022/07/07 13:28:57;;;;;;;;;;;;;;;22.77;41.01;96146.28;10511699;28;1800;-59
2022/07/07 13:33:57;;;;;;;;;;;;;;;22.76;41.24;96148.13;10518350;28;1848;-61
2022/07/07 13:38:58;;;;;;;;;;;;;;;22.77;41.37;96162.91;10509064;28;1917;-58
2022/07/07 13:43:58;;;;;;;;;;;;;;;22.78;41.35;96190.13;10509479;28;1990;-57
2022/07/07 13:48:59;;;;;;;;;;;;;;;22.80;41.06;96190.63;10506489;28;1960;-59
2022/07/07 13:54:00;;;;;;;;;;;;;;;22.81;41.21;96200.16;10505876;28;1969;-59
2022/07/07 13:59:00;;;;;;;;;;;;;;;22.82;41.36;96196.44;10515902;28;1993;-59
2022/07/07 14:04:00;;;;;;;;;;;;;;;22.82;41.43;96191.94;10505249;28;1823;-58
2022/07/07 14:09:01;;;;;;;;;;;;;;;22.84;41.42;96171.31;10511666;28;1799;-57
2022/07/07 14:14:02;;;;;;;;;;;;;;;22.87;41.30;96176.03;10494725;28;1879;-57
2022/07/07 14:19:03;;;;;;;;;;;;;;;22.88;41.46;96163.59;10500366;28;1906;-58
2022/07/07 14:24:03;;;;;;;;;;;;;;;22.91;41.16;96157.75;10501238;28;1840;-55
2022/07/07 14:29:04;;;;;;;;;;;;;;;22.93;41.41;96153.78;10501775;28;2211;-57
2022/07/07 14:34:04;;;;;;;;;;;;;;;22.93;41.44;96151.13;10505077;28;1832;-55
2022/07/07 14:39:05;;;;;;;;;;;;;;;22.99;41.17;96141.28;10493198;28;1980;-57
2022/07/07 14:44:05;;;;;;;;;;;;;;;22.96;42.58;96139.19;10483580;28;1835;-59
2022/07/07 14:49:06;;;;;;;;;;;;;;;22.96;43.33;96132.06;10491400;28;1777;-58
2022/07/07 14:54:06;;;;;;;;;;;;;;;22.94;44.44;96131.56;10506195;28;2105;-61
2022/07/07 14:59:06;;;;;;;;;;;;;;;22.93;44.83;96130.00;10500829;28;1967;-57
2022/07/07 15:04:07;;;;;;;;;;;;;;;22.94;44.96;96141.34;10500924;28;1824;-59
2022/07/07 15:09:07;;;;;;;;;;;;;;;22.96;45.17;96144.47;10502118;28;1816;-56
2022/07/07 15:14:08;;;;;;;;;;;;;;;22.89;46.24;96146.69;10495042;28;1895;-59
2022/07/07 15:19:08;;;;;;;;;;;;;;;22.86;45.99;96140.09;10494232;28;2260;-59
2022/07/07 15:24:09;;;;;;;;;;;;;;;22.80;46.59;96140.41;10495468;28;1844;-60
2022/07/07 15:29:10;;;;;;;;;;;;;;;22.75;47.82;96135.19;10498505;28;1772;-60
2022/07/07 15:34:11;;;;;;;;;;;;;;;22.75;47.12;96135.19;10499531;28;1874;-60
2022/07/07 15:39:11;;;;;;;;;;;;;;;22.75;47.75;96132.53;10503310;28;1985;-59
2022/07/07 15:44:11;;;;;;;;;;;;;;;22.74;47.80;96134.38;10494770;28;1787;-55
2022/07/07 15:49:13;;;;;;;;;;;;;;;22.74;47.80;96123.03;10506059;28;1820;-61
2022/07/07 15:54:14;;;;;;;;;;;;;;;22.70;48.11;96128.09;10498115;28;1843;-61
2022/07/07 15:59:14;;;;;;;;;;;;;;;22.69;48.43;96128.38;10500125;28;1981;-61
2022/07/07 16:09:34;;;;;;;;;;;;;;;22.70;48.72;96116.72;10498726;28;1867;-61
2022/07/07 16:14:34;;;;;;;;;;;;;;;22.72;49.02;96117.22;10498164;28;2339;-61
2022/07/07 16:19:34;;;;;;;;;;;;;;;22.70;48.77;96120.16;10500577;28;1910;-62
2022/07/07 16:24:35;;;;;;;;;;;;;;;22.65;49.02;96122.81;10491808;28;1851;-61
2022/07/07 16:29:36;;;;;;;;;;;;;;;22.67;49.06;96126.78;10494271;28;1804;-61
2022/07/07 16:34:37;;;;;;;;;;;;;;;22.68;49.33;96122.28;10500490;28;1804;-60
2022/07/07 16:39:37;;;;;;;;;;;;;;;22.71;49.43;96127.00;10506311;28;1972;-63
2022/07/07 16:44:37;;;;;;;;;;;;;;;22.73;49.19;96130.16;10504454;28;1772;-60
2022/07/07 16:49:38;;;;;;;;;;;;;;;22.76;48.87;96153.41;10510877;28;1812;-59
2022/07/07 16:54:39;;;;;;;;;;;;;;;22.73;48.77;96176.97;10506402;28;1854;-56
2022/07/07 16:59:39;;;;;;;;;;;;;;;22.61;49.02;96187.88;10514191;28;1996;-57
2022/07/07 17:04:39;;;;;;;;;;;;;;;22.51;48.65;96191.34;10510835;28;1807;-57
2022/07/07 17:09:40;;;;;;;;;;;;;;;22.51;48.84;96201.13;10505755;28;1765;-60
2022/07/07 17:14:41;;;;;;;;;;;;;;;22.48;48.69;96201.69;10511125;28;1736;-58
2022/07/07 17:19:41;;;;;;;;;;;;;;;22.44;48.24;96206.72;10506196;28;1934;-58
2022/07/07 17:24:42;;;;;;;;;;;;;;;22.29;48.33;96212.09;10496854;28;1768;-61
2022/07/07 17:29:42;;;;;;;;;;;;;;;22.15;48.09;96213.78;10500155;28;1843;-59
2022/07/07 17:34:43;;;;;;;;;;;;;;;22.08;48.19;96212.47;10504664;28;1635;-61
2022/07/07 17:39:43;;;;;;;;;;;;;;;22.05;48.46;96221.72;10501924;28;1898;-60
2022/07/07 17:44:44;;;;;;;;;;;;;;;22.07;48.25;96222.22;10505477;28;1839;-59
2022/07/07 17:49:44;;;;;;;;;;;;;;;22.02;48.28;96222.28;10503885;28;1926;-60
2022/07/07 17:54:44;;;;;;;;;;;;;;;22.10;48.21;96221.69;10502567;28;1892;-58
2022/07/07 17:59:46;;;;;;;;;;;;;;;22.19;48.80;96217.44;10495119;28;2037;-57
2022/07/07 18:04:47;;;;;;;;;;;;;;;22.25;48.55;96223.47;10496905;28;1792;-60
2022/07/07 18:09:47;;;;;;;;;;;;;;;22.24;48.29;96233.25;10492815;28;1934;-60
2022/07/07 18:14:48;;;;;;;;;;;;;;;22.20;48.53;96224.28;10497955;28;1911;-57
2022/07/07 18:19:49;;;;;;;;;;;;;;;22.18;48.61;96234.34;10502373;28;1927;-58
2022/07/07 18:24:50;;;;;;;;;;;;;;;22.11;48.89;96236.50;10501978;28;1833;-61
2022/07/07 18:29:50;;;;;;;;;;;;;;;22.10;49.02;96248.09;10504068;28;1539;-58
2022/07/07 18:34:51;;;;;;;;;;;;;;;22.08;49.59;96250.22;10503625;28;2509;-59
2022/07/07 18:39:51;;;;;;;;;;;;;;;22.06;50.26;96257.63;10504729;28;1999;-60
2022/07/07 18:44:52;;;;;;;;;;;;;;;22.09;50.49;96262.34;10499567;28;1446;-60
2022/07/07 18:49:52;;;;;;;;;;;;;;;22.07;50.46;96267.09;10500828;28;1355;-61
2022/07/07 18:54:53;;;;;;;;;;;;;;;22.06;50.66;96262.91;10503072;28;1521;-59
2022/07/07 18:59:53;;;;;;;;;;;;;;;21.97;50.66;96263.75;10504122;28;1929;-60
2022/07/07 19:04:53;;;;;;;;;;;;;;;21.96;50.70;96273.50;10502727;28;1402;-60
2022/07/07 19:09:55;;;;;;;;;;;;;;;21.92;50.66;96282.22;10505243;28;1580;-60
2022/07/07 19:14:55;;;;;;;;;;;;;;;21.82;50.83;96277.78;10495924;28;1352;-63
2022/07/07 19:19:55;;;;;;;;;;;;;;;21.85;50.95;96290.44;10510109;28;1910;-61
2022/07/07 19:24:56;;;;;;;;;;;;;;;21.93;51.01;96299.66;10510194;28;1527;-60
2022/07/07 19:29:58;;;;;;;;;;;;;;;21.99;50.55;96304.63;10505184;28;1648;-57
2022/07/07 19:34:59;;;;;;;;;;;;;;;22.02;50.58;96306.75;10510903;28;1613;-62
2022/07/07 19:39:59;;;;;;;;;;;;;;;22.07;50.34;96321.78;10511938;28;1926;-61
2022/07/07 19:44:59;;;;;;;;;;;;;;;22.09;50.23;96320.44;10515234;28;1456;-59
2022/07/07 19:50:00;;;;;;;;;;;;;;;22.13;50.36;96334.72;10509764;28;1476;-60
2022/07/07 19:55:01;;;;;;;;;;;;;;;22.14;50.35;96333.63;10506042;28;1361;-60
2022/07/07 20:00:02;;;;;;;;;;;;;;;22.16;50.21;96341.28;10511620;28;1909;-62
2022/07/07 20:05:03;;;;;;;;;;;;;;;22.16;50.05;96339.44;10502248;28;1871;-62
2022/07/07 20:10:04;;;;;;;;;;;;;;;22.25;49.50;96350.25;10509368;28;1874;-61
2022/07/07 20:15:04;;;;;;;;;;;;;;;22.32;49.39;96362.09;10503594;28;2228;-60
2022/07/07 20:20:05;;;;;;;;;;;;;;;22.39;49.01;96372.38;10504879;28;1914;-58
2022/07/07 20:25:06;;;;;;;;;;;;;;;22.43;49.23;96378.69;10494102;28;1839;-61
2022/07/07 20:30:07;;;;;;;;;;;;;;;22.46;48.77;96375.53;10509125;28;1839;-60
2022/07/07 20:35:07;;;;;;;;;;;;;;;22.49;48.96;96394.25;10508663;28;1951;-59
2022/07/07 20:40:08;;;;;;;;;;;;;;;22.51;48.62;96392.13;10503451;28;1965;-63
2022/07/07 20:45:09;;;;;;;;;;;;;;;22.52;48.53;96398.22;10505816;28;1792;-60
2022/07/07 20:50:09;;;;;;;;;;;;;;;22.55;48.44;96408.22;10505081;28;1836;-59
2022/07/07 20:55:09;;;;;;;;;;;;;;;22.57;48.31;96412.19;10513978;28;1913;-60
2022/07/07 21:00:10;;;;;;;;;;;;;;;22.58;48.01;96413.81;10507841;28;1910;-59
2022/07/07 21:05:11;;;;;;;;;;;;;;;22.59;48.08;96436.53;10508171;28;1796;-63
2022/07/07 21:10:13;;;;;;;;;;;;;;;22.61;47.97;96434.41;10509193;28;1919;-66
2022/07/07 21:15:14;;;;;;;;;;;;;;;22.63;47.80;96437.56;10502594;28;1811;-60
2022/07/07 21:20:14;;;;;;;;;;;;;;;22.65;47.54;96439.94;10508731;28;1986;-60
2022/07/07 21:25:15;;;;;;;;;;;;;;;22.67;47.66;96448.38;10510272;28;1792;-59
2022/07/07 21:30:16;;;;;;;;;;;;;;;22.67;47.60;96454.47;10503532;28;2122;-58
2022/07/07 21:35:16;;;;;;;;;;;;;;;22.69;47.64;96456.06;10504197;28;1815;-58
2022/07/07 21:40:16;;;;;;;;;;;;;;;22.70;47.36;96465.56;10506969;28;1913;-60
2022/07/07 21:45:16;;;;;;;;;;;;;;;22.71;47.28;96470.56;10503673;28;1820;-59
2022/07/07 21:50:17;;;;;;;;;;;;;;;22.71;47.42;96467.16;10508546;28;1772;-56
2022/07/07 21:55:17;;;;;;;;;;;;;;;22.72;47.46;96474.00;10506052;28;1851;-58
2022/07/07 22:00:18;;;;;;;;;;;;;;;22.73;47.32;96468.44;10497635;28;1911;-59
2022/07/07 22:10:37;;;;;;;;;;;;;;;22.75;47.19;96481.41;10504930;28;1908;-60
2022/07/07 22:15:38;;;;;;;;;;;;;;;22.75;47.15;96474.25;10485615;28;1831;-58
2022/07/07 22:20:39;;;;;;;;;;;;;;;22.77;46.95;96482.72;10511571;28;1946;-59
2022/07/07 22:25:39;;;;;;;;;;;;;;;22.76;46.72;96477.69;10505151;28;1843;-56
2022/07/07 22:30:39;;;;;;;;;;;;;;;22.78;46.93;96491.44;10501929;28;1796;-60
2022/07/07 22:35:40;;;;;;;;;;;;;;;22.78;46.89;96494.06;10504724;28;1796;-57
2022/07/07 22:40:41;;;;;;;;;;;;;;;22.79;46.66;96501.75;10500763;28;1914;-56
2022/07/07 22:45:41;;;;;;;;;;;;;;;22.79;46.78;96508.88;10501000;28;1946;-63
2022/07/07 22:50:42;;;;;;;;;;;;;;;22.79;46.68;96504.41;10507545;28;1768;-57
2022/07/07 22:55:42;;;;;;;;;;;;;;;22.81;46.93;96504.13;10505163;28;1843;-58
2022/07/07 23:00:45;;;;;;;;;;;;;;;22.81;46.69;96506.75;10504069;28;1986;-61
2022/07/07 23:05:45;;;;;;;;;;;;;;;22.82;46.82;96508.34;10520998;28;1847;-60
2022/07/07 23:10:45;;;;;;;;;;;;;;;22.83;46.53;96504.66;10495091;28;1949;-58
2022/07/07 23:15:45;;;;;;;;;;;;;;;22.84;46.68;96503.56;10498917;28;1903;-58
2022/07/07 23:20:46;;;;;;;;;;;;;;;22.83;46.74;96507.28;10505776;28;1990;-60
2022/07/07 23:25:46;;;;;;;;;;;;;;;22.84;46.56;96506.22;10504323;28;1859;-62
2022/07/07 23:30:46;;;;;;;;;;;;;;;22.85;46.63;96510.44;10494237;28;1811;-55
2022/07/07 23:35:46;;;;;;;;;;;;;;;22.85;46.21;96505.97;10505421;28;1954;-54
2022/07/07 23:40:48;;;;;;;;;;;;;;;22.85;46.50;96507.81;10503307;28;1942;-56
2022/07/07 23:45:48;;;;;;;;;;;;;;;22.86;46.60;96504.09;10496824;28;1807;-57
2022/07/07 23:50:48;;;;;;;;;;;;;;;22.86;46.49;96507.53;10503451;28;1887;-58
2022/07/07 23:55:49;;;;;;;;;;;;;;;22.87;46.52;96505.69;10500023;28;1871;-58
